createdAt,value
2022-10-05T00:01:18.894Z,16.50
2022-10-05T00:05:23.849Z,16.10
2022-10-05T00:08:56.873Z,16.00
2022-10-05T00:13:00.708Z,15.80
2022-10-05T00:16:59.619Z,14.90
2022-10-05T00:20:27.332Z,15.10
2022-10-05T00:24:24.148Z,14.90
2022-10-05T00:28:34.168Z,14.90
2022-10-05T00:32:30.207Z,15.00
2022-10-05T00:36:30.687Z,14.00
2022-10-05T00:40:03.857Z,14.30
2022-10-05T00:43:57.458Z,14.10
2022-10-05T00:48:10.175Z,13.80
2022-10-05T00:52:16.868Z,13.20
2022-10-05T00:56:10.472Z,12.50
2022-10-05T01:00:25.769Z,13.80
2022-10-05T01:04:37.791Z,13.40
2022-10-05T01:08:48.140Z,11.20
2022-10-05T01:12:42.837Z,12.00
2022-10-05T01:17:16.056Z,11.70
2022-10-05T01:21:34.233Z,12.50
2022-10-05T01:25:32.272Z,10.80
2022-10-05T01:29:34.490Z,12.10
2022-10-05T01:33:26.892Z,10.90
2022-10-05T01:37:33.301Z,10.90
2022-10-05T01:41:46.261Z,11.20
2022-10-05T01:45:56.560Z,11.00
2022-10-05T01:50:05.244Z,11.00
2022-10-05T01:54:20.375Z,11.20
2022-10-05T01:58:48.657Z,11.80
2022-10-05T02:02:50.305Z,12.20
2022-10-05T02:06:45.945Z,11.60
2022-10-05T02:10:35.823Z,12.20
2022-10-05T02:14:46.936Z,10.40
2022-10-05T02:18:52.672Z,10.60
2022-10-05T02:22:33.361Z,10.70
2022-10-05T02:26:14.329Z,10.50
2022-10-05T02:29:43.029Z,10.40
2022-10-05T02:33:21.457Z,10.70
2022-10-05T02:36:58.556Z,9.40
2022-10-05T02:41:02.338Z,9.80
2022-10-05T02:45:15.901Z,9.60
2022-10-05T02:49:31.642Z,9.60
2022-10-05T02:53:16.329Z,9.70
2022-10-05T02:57:02.685Z,10.20
2022-10-05T03:01:01.891Z,10.00
2022-10-05T03:04:56.386Z,10.10
2022-10-05T03:09:03.935Z,10.50
2022-10-05T03:13:24.767Z,9.80
2022-10-05T03:17:27.338Z,9.40
2022-10-05T03:21:46.095Z,10.10
2022-10-05T03:26:00.615Z,9.00
2022-10-05T03:30:06.199Z,9.50
2022-10-05T03:34:10.627Z,9.60
2022-10-05T03:38:06.279Z,8.70
2022-10-05T03:42:02.038Z,9.20
2022-10-05T03:46:25.285Z,8.80
2022-10-05T03:50:38.030Z,8.90
2022-10-05T03:54:22.349Z,8.70
2022-10-05T03:58:01.518Z,9.10
2022-10-05T04:01:58.238Z,9.70
2022-10-05T04:05:55.189Z,9.60
2022-10-05T04:10:06.860Z,9.70
2022-10-05T04:17:53.887Z,9.50
2022-10-05T04:22:05.647Z,10.10
2022-10-05T04:26:15.554Z,9.00
2022-10-05T04:30:09.287Z,10.90
2022-10-05T04:33:55.680Z,10.00
2022-10-05T04:37:46.383Z,9.70
2022-10-05T04:41:31.545Z,10.30
2022-10-05T04:49:22.394Z,9.70
2022-10-05T04:53:20.665Z,10.20
2022-10-05T04:57:19.241Z,9.90
2022-10-05T05:01:21.958Z,9.80
2022-10-05T05:05:06.093Z,9.70
2022-10-05T05:09:27.059Z,10.00
2022-10-05T05:13:20.899Z,11.20
2022-10-05T05:17:13.109Z,10.60
2022-10-05T05:21:19.809Z,10.50
2022-10-05T05:25:26.609Z,10.50
2022-10-05T05:29:45.330Z,10.60
2022-10-05T05:33:55.325Z,11.10
2022-10-05T05:38:23.343Z,11.60
2022-10-05T05:42:24.296Z,10.10
2022-10-05T05:46:38.820Z,10.20
2022-10-05T05:50:56.705Z,9.80
2022-10-05T05:54:56.796Z,10.30
2022-10-05T05:59:06.989Z,9.90
2022-10-05T06:03:03.067Z,9.80
2022-10-05T06:07:13.102Z,9.70
2022-10-05T06:11:19.666Z,9.90
2022-10-05T06:15:22.436Z,9.70
2022-10-05T06:19:26.195Z,9.30
2022-10-05T06:23:36.560Z,9.70
2022-10-05T06:27:49.333Z,8.30
2022-10-05T06:31:15.935Z,9.30
2022-10-05T06:35:41.325Z,8.30
2022-10-05T06:39:50.693Z,8.70
2022-10-05T06:44:06.775Z,8.10
2022-10-05T06:48:16.345Z,7.30
2022-10-05T06:52:38.012Z,7.00
2022-10-05T06:56:15.429Z,7.10
2022-10-05T06:59:57.640Z,7.10
2022-10-05T07:04:16.538Z,7.50
2022-10-05T07:08:26.360Z,7.30
2022-10-05T07:12:30.006Z,6.90
2022-10-05T07:16:16.555Z,6.30
2022-10-05T07:20:12.398Z,6.40
2022-10-05T07:24:05.148Z,5.80
2022-10-05T07:27:53.506Z,6.90
2022-10-05T07:31:35.413Z,5.60
2022-10-05T07:35:34.639Z,5.60
2022-10-05T07:39:21.625Z,5.60
2022-10-05T07:43:57.478Z,5.70
2022-10-05T07:48:00.267Z,5.50
2022-10-05T07:51:59.814Z,5.30
2022-10-05T07:56:12.837Z,5.50
2022-10-05T08:00:16.677Z,4.50
2022-10-05T08:07:49.990Z,5.50
2022-10-05T08:11:56.823Z,5.60
2022-10-05T08:15:48.493Z,5.30
2022-10-05T08:19:52.905Z,4.80
2022-10-05T08:23:58.451Z,4.60
2022-10-05T08:28:02.222Z,5.00
2022-10-05T08:32:14.697Z,5.30
2022-10-05T08:36:39.643Z,4.50
2022-10-05T08:41:00.587Z,4.20
2022-10-05T08:45:03.432Z,3.20
2022-10-05T08:49:10.314Z,3.60
2022-10-05T08:53:35.149Z,3.20
2022-10-05T08:57:31.364Z,3.60
2022-10-05T09:01:00.793Z,3.90
2022-10-05T09:04:54.186Z,3.90
2022-10-05T09:08:49.481Z,3.30
2022-10-05T09:12:50.855Z,4.10
2022-10-05T09:16:52.558Z,3.60
2022-10-05T09:20:47.884Z,3.00
2022-10-05T09:24:48.470Z,3.20
2022-10-05T09:28:54.879Z,3.40
2022-10-05T09:32:59.241Z,3.60
2022-10-05T09:37:07.817Z,3.00
2022-10-05T09:40:54.542Z,3.10
2022-10-05T09:45:03.113Z,2.90
2022-10-05T09:48:52.541Z,3.10
2022-10-05T09:53:19.942Z,2.90
2022-10-05T09:57:17.868Z,3.50
2022-10-05T10:01:16.017Z,3.80
2022-10-05T10:05:33.568Z,2.70
2022-10-05T10:09:50.644Z,3.00
2022-10-05T10:13:56.035Z,3.00
2022-10-05T10:17:59.854Z,3.60
2022-10-05T10:21:51.883Z,2.80
2022-10-05T10:25:55.529Z,2.70
2022-10-05T10:29:31.758Z,3.20
2022-10-05T10:33:20.268Z,3.10
2022-10-05T10:36:44.091Z,2.60
2022-10-05T10:39:54.872Z,3.00
2022-10-05T10:43:23.946Z,3.00
2022-10-05T10:46:46.734Z,3.30
2022-10-05T10:50:02.424Z,4.00
2022-10-05T10:53:20.763Z,3.60
2022-10-05T10:56:33.955Z,3.50
2022-10-05T10:59:32.365Z,3.40
2022-10-05T11:02:27.202Z,3.30
2022-10-05T11:06:02.714Z,3.50
2022-10-05T11:09:08.357Z,3.80
2022-10-05T11:12:14.094Z,3.90
2022-10-05T11:15:30.677Z,3.80
2022-10-05T11:18:45.519Z,3.00
2022-10-05T11:22:20.940Z,3.00
2022-10-05T11:25:44.594Z,3.30
2022-10-05T11:28:46.213Z,3.40
2022-10-05T11:31:59.395Z,3.00
2022-10-05T11:35:24.717Z,3.50
2022-10-05T11:38:46.324Z,3.50
2022-10-05T11:42:11.585Z,3.40
2022-10-05T11:45:23.460Z,2.70
2022-10-05T11:49:00.711Z,2.90
2022-10-05T11:52:37.965Z,3.10
2022-10-05T11:56:01.405Z,3.60
2022-10-05T11:58:56.822Z,3.50
2022-10-05T12:02:19.282Z,3.50
2022-10-05T12:06:09.499Z,3.10
2022-10-05T12:09:16.548Z,3.00
2022-10-05T12:12:22.578Z,3.00
2022-10-05T12:15:47.514Z,5.00
2022-10-05T12:18:32.669Z,3.20
2022-10-05T12:21:15.742Z,3.30
2022-10-05T12:24:27.177Z,4.30
2022-10-05T12:27:44.223Z,3.70
2022-10-05T12:31:13.727Z,3.10
2022-10-05T12:34:47.360Z,3.10
2022-10-05T12:38:08.123Z,2.90
2022-10-05T12:41:40.818Z,2.70
2022-10-05T12:45:20.948Z,2.80
2022-10-05T12:48:40.464Z,3.00
2022-10-05T12:51:37.245Z,3.10
2022-10-05T12:54:35.440Z,2.90
2022-10-05T12:57:36.887Z,2.60
2022-10-05T13:00:35.056Z,3.30
2022-10-05T13:03:55.675Z,2.70
2022-10-05T13:07:31.866Z,2.90
2022-10-05T13:10:38.359Z,3.10
2022-10-05T13:13:57.026Z,2.70
2022-10-05T13:16:54.985Z,2.60
2022-10-05T13:20:04.301Z,2.40
2022-10-05T13:23:12.337Z,2.80
2022-10-05T13:26:43.813Z,2.90
2022-10-05T13:30:05.481Z,2.90
2022-10-05T13:33:18.019Z,2.50
2022-10-05T13:36:21.888Z,3.20
2022-10-05T13:40:12.863Z,3.50
2022-10-05T13:43:27.048Z,2.70
2022-10-05T13:46:37.028Z,2.90
2022-10-05T13:50:11.938Z,2.90
2022-10-05T13:54:09.654Z,3.10
2022-10-05T13:57:01.786Z,2.80
2022-10-05T14:01:01.643Z,2.80
2022-10-05T14:04:16.398Z,3.60
2022-10-05T14:08:08.466Z,3.10
2022-10-05T14:11:15.996Z,2.80
2022-10-05T14:14:44.532Z,3.10
2022-10-05T14:17:46.655Z,3.40
2022-10-05T14:20:37.327Z,3.30
2022-10-05T14:23:44.941Z,2.90
2022-10-05T14:27:11.115Z,3.10
2022-10-05T14:30:45.688Z,3.20
2022-10-05T14:33:50.446Z,3.60
2022-10-05T14:37:10.100Z,3.40
2022-10-05T14:40:38.060Z,3.80
2022-10-05T14:43:21.455Z,3.90
2022-10-05T14:46:29.730Z,4.30
2022-10-05T14:49:45.209Z,4.00
2022-10-05T14:52:35.899Z,4.30
2022-10-05T14:55:48.186Z,4.30
2022-10-05T14:58:55.778Z,4.60
2022-10-05T15:01:55.831Z,4.90
2022-10-05T15:05:10.678Z,4.20
2022-10-05T15:08:22.586Z,4.90
2022-10-05T15:11:42.957Z,5.40
2022-10-05T15:14:37.139Z,4.30
2022-10-05T15:17:30.514Z,4.80
2022-10-05T15:20:30.588Z,5.00
2022-10-05T15:23:34.890Z,4.40
2022-10-05T15:26:26.857Z,4.20
2022-10-05T15:29:32.060Z,5.00
2022-10-05T15:32:23.865Z,4.60
2022-10-05T15:35:18.843Z,5.50
2022-10-05T15:38:27.344Z,4.60
2022-10-05T15:41:32.565Z,4.70
2022-10-05T15:45:07.876Z,4.50
2022-10-05T15:47:59.494Z,4.70
2022-10-05T15:51:05.694Z,4.30
2022-10-05T15:54:37.914Z,4.50
2022-10-05T15:57:44.107Z,4.00
2022-10-05T16:00:30.211Z,4.60
2022-10-05T16:03:58.556Z,4.50
2022-10-05T16:07:17.700Z,4.20
2022-10-05T16:10:41.650Z,4.70
2022-10-05T16:13:46.376Z,5.30
2022-10-05T16:17:04.273Z,4.30
2022-10-05T16:20:20.961Z,4.40
2022-10-05T16:23:40.940Z,4.10
2022-10-05T16:29:34.586Z,4.40
2022-10-05T16:33:03.346Z,4.60
2022-10-05T16:37:00.760Z,4.90
2022-10-05T16:39:56.672Z,5.90
2022-10-05T16:43:04.967Z,4.70
2022-10-05T16:47:30.929Z,5.40
2022-10-05T16:51:01.532Z,4.40
2022-10-05T16:55:01.084Z,5.10
2022-10-05T16:57:57.233Z,6.00
2022-10-05T17:01:28.439Z,6.30
2022-10-05T17:05:20.668Z,6.00
2022-10-05T17:09:00.334Z,5.80
2022-10-05T17:12:41.946Z,5.80
2022-10-05T17:16:59.476Z,5.60
2022-10-05T17:21:01.275Z,5.30
2022-10-05T17:24:55.436Z,5.30
2022-10-05T17:28:37.300Z,6.10
2022-10-05T17:32:22.303Z,5.60
2022-10-05T17:36:07.888Z,5.50
2022-10-05T17:39:44.759Z,5.40
2022-10-05T17:43:07.995Z,5.60
2022-10-05T17:51:00.604Z,5.20
2022-10-05T17:55:09.996Z,5.20
2022-10-05T17:59:29.095Z,5.00
2022-10-05T18:03:35.828Z,6.30
2022-10-05T18:06:54.354Z,6.40
2022-10-05T18:10:20.781Z,6.60
2022-10-05T18:13:43.916Z,7.10
2022-10-05T18:17:09.991Z,6.60
2022-10-05T18:20:59.267Z,7.00
2022-10-05T18:24:33.242Z,7.50
2022-10-05T18:28:20.933Z,7.70
2022-10-05T18:31:41.573Z,6.90
2022-10-05T18:35:32.063Z,6.10
2022-10-05T18:39:17.322Z,6.90
2022-10-05T18:42:44.788Z,6.90
2022-10-05T18:46:34.929Z,6.40
2022-10-05T18:49:58.525Z,6.80
2022-10-05T18:53:11.250Z,7.20
2022-10-05T18:57:08.632Z,7.30
2022-10-05T19:00:19.332Z,7.30
2022-10-05T19:03:47.382Z,7.80
2022-10-05T19:07:24.027Z,7.00
2022-10-05T19:10:37.328Z,7.10
2022-10-05T19:13:58.823Z,8.00
2022-10-05T19:17:54.518Z,7.50
2022-10-05T19:21:29.658Z,8.90
2022-10-05T19:25:48.419Z,7.80
2022-10-05T19:29:28.775Z,7.80
2022-10-05T19:33:02.198Z,7.10
2022-10-05T19:37:02.857Z,7.00
2022-10-05T19:41:28.031Z,8.10
2022-10-05T19:45:29.399Z,7.40
2022-10-05T19:49:07.099Z,7.70
2022-10-05T19:52:40.186Z,8.60
2022-10-05T19:56:06.982Z,8.50
2022-10-05T19:59:18.235Z,8.50
2022-10-05T20:02:44.893Z,8.20
2022-10-05T20:05:57.044Z,8.90
2022-10-05T20:09:49.633Z,8.00
2022-10-05T20:13:58.707Z,8.60
2022-10-05T20:17:57.252Z,8.50
2022-10-05T20:21:59.618Z,8.30
2022-10-05T20:26:03.235Z,8.00
2022-10-05T20:29:46.949Z,7.70
2022-10-05T20:33:37.303Z,8.70
2022-10-05T20:36:57.453Z,8.00
2022-10-05T20:40:29.305Z,7.60
2022-10-05T20:44:13.088Z,8.30
2022-10-05T20:47:47.460Z,9.00
2022-10-05T20:50:52.290Z,8.80
2022-10-05T20:53:58.603Z,8.50
2022-10-05T20:57:22.282Z,8.60
2022-10-05T21:04:35.918Z,8.20
2022-10-05T21:08:07.159Z,7.90
2022-10-05T21:11:19.269Z,8.60
2022-10-05T21:18:11.241Z,8.50
2022-10-05T21:21:39.030Z,8.50
2022-10-05T21:24:41.669Z,7.90
2022-10-05T21:28:44.404Z,8.70
2022-10-05T21:32:41.826Z,7.90
2022-10-05T21:36:30.223Z,7.40
2022-10-05T21:40:11.824Z,8.40
2022-10-05T21:43:56.704Z,8.10
2022-10-05T21:47:51.515Z,8.80
2022-10-05T21:51:54.089Z,8.20
2022-10-05T21:55:41.053Z,7.80
2022-10-05T21:59:44.928Z,7.80
2022-10-05T22:03:37.451Z,7.50
2022-10-05T22:07:26.385Z,7.90
2022-10-05T22:11:21.107Z,7.70
2022-10-05T22:15:15.945Z,7.90
2022-10-05T22:19:01.252Z,7.60
2022-10-05T22:23:05.063Z,7.50
2022-10-05T22:26:59.621Z,7.40
2022-10-05T22:30:33.479Z,7.00
2022-10-05T22:34:38.257Z,8.60
2022-10-05T22:38:03.132Z,7.60
2022-10-05T22:41:47.474Z,8.50
2022-10-05T22:45:41.480Z,8.00
2022-10-05T22:49:17.687Z,8.60
2022-10-05T22:53:15.541Z,7.90
2022-10-05T22:57:08.356Z,8.00
2022-10-05T23:01:08.740Z,7.30
2022-10-05T23:04:54.267Z,8.40
2022-10-05T23:08:42.043Z,8.00
2022-10-05T23:12:29.953Z,8.00
2022-10-05T23:16:16.885Z,7.40
2022-10-05T23:19:39.150Z,7.10
2022-10-05T23:23:22.748Z,7.10
2022-10-05T23:27:09.303Z,7.20
2022-10-05T23:30:25.258Z,7.60
2022-10-05T23:34:29.272Z,8.00
2022-10-05T23:38:23.078Z,6.60
2022-10-05T23:42:00.336Z,8.00
2022-10-05T23:45:34.112Z,7.60
2022-10-05T23:49:37.969Z,6.80
2022-10-05T23:53:11.130Z,7.40
2022-10-05T23:57:05.955Z,7.20
